KHIE/HIE METAR and TAF weather

Enter ICAO airport designator
Station Type Date Time Source
KHIE METAR 2020/11/27 14:13 UTC NOAA

KHIE 271413Z AUTO 00000KT 10SM BKN004 OVC010 05/04 A3003 RMK AO2 T00500039


Station Type Date Time Source
KHIE Decoded METAR 2020/11/27 14:13 UTC NOAA

MT WASHINGTON REGIONAL AIRPORT , NH, United States (KHIE) 44-22N 71-33W 318M
Nov 27, 2020 - 09:13 AM EST / 2020.11.27 1413 UTC
Wind: Calm:0
Visibility: 10 mile(s):0
Sky conditions: overcast
Temperature: 41.0 F (5.0 C)
Dew Point: 39.0 F (3.9 C)
Relative Humidity: 92%
Pressure (altimeter): 30.03 in. Hg (1016 hPa)
ob: KHIE 271413Z AUTO 00000KT 10SM BKN004 OVC010 05/04 A3003 RMK AO2 T00500039
cycle: 14

Station Type Date Time Source
KHIE TAF 2020/11/27 12:22 UTC NOAA

TAF KHIE 271120Z 2712/2812 00000KT P6SM BKN015
FM271600 VRB03KT P6SM -SHRA BKN025
FM272300 00000KT P6SM BKN008

Example: see airport list